sensor_id;sensor_type;location;lat;lon;timestamp;pressure;altitude;pressure_sealevel;temperature;humidity
17615;BME280;8926;49.720;6.576;2022-12-29T00:01:45;98915.69;;;10.70;92.58
17615;BME280;8926;49.720;6.576;2022-12-29T00:04:13;98915.69;;;10.70;92.69
17615;BME280;8926;49.720;6.576;2022-12-29T00:06:39;98914.75;;;10.71;92.59
17615;BME280;8926;49.720;6.576;2022-12-29T00:09:04;98909.94;;;10.78;92.35
17615;BME280;8926;49.720;6.576;2022-12-29T00:11:29;98916.00;;;10.78;92.44
17615;BME280;8926;49.720;6.576;2022-12-29T00:13:55;98919.31;;;10.80;92.06
17615;BME280;8926;49.720;6.576;2022-12-29T00:16:44;98914.84;;;10.82;91.73
17615;BME280;8926;49.720;6.576;2022-12-29T00:19:10;98917.44;;;10.82;92.26
17615;BME280;8926;49.720;6.576;2022-12-29T00:21:57;98915.03;;;10.79;92.91
17615;BME280;8926;49.720;6.576;2022-12-29T00:24:42;98908.88;;;10.80;92.95
17615;BME280;8926;49.720;6.576;2022-12-29T00:27:30;98926.44;;;10.78;93.48
17615;BME280;8926;49.720;6.576;2022-12-29T00:30:20;98923.81;;;10.78;93.75
17615;BME280;8926;49.720;6.576;2022-12-29T00:33:16;98923.53;;;10.70;94.25
17615;BME280;8926;49.720;6.576;2022-12-29T00:36:08;98914.75;;;10.71;94.64
17615;BME280;8926;49.720;6.576;2022-12-29T00:38:37;98902.84;;;10.67;94.92
17615;BME280;8926;49.720;6.576;2022-12-29T00:41:23;98889.28;;;10.62;95.00
17615;BME280;8926;49.720;6.576;2022-12-29T00:44:08;98906.63;;;10.63;94.66
17615;BME280;8926;49.720;6.576;2022-12-29T00:46:37;98908.91;;;10.68;94.19
17615;BME280;8926;49.720;6.576;2022-12-29T00:49:03;98897.63;;;10.67;94.09
17615;BME280;8926;49.720;6.576;2022-12-29T00:51:48;98897.41;;;10.70;94.38
17615;BME280;8926;49.720;6.576;2022-12-29T00:54:14;98895.72;;;10.69;94.26
17615;BME280;8926;49.720;6.576;2022-12-29T00:56:40;98893.84;;;10.71;94.45
17615;BME280;8926;49.720;6.576;2022-12-29T00:59:08;98877.44;;;10.69;94.38
17615;BME280;8926;49.720;6.576;2022-12-29T01:01:34;98889.06;;;10.65;94.36
17615;BME280;8926;49.720;6.576;2022-12-29T01:04:00;98892.38;;;10.67;94.46
17615;BME280;8926;49.720;6.576;2022-12-29T01:06:25;98871.50;;;10.67;94.55
17615;BME280;8926;49.720;6.576;2022-12-29T01:08:51;98873.16;;;10.68;94.40
17615;BME280;8926;49.720;6.576;2022-12-29T01:11:38;98875.03;;;10.66;94.84
17615;BME280;8926;49.720;6.576;2022-12-29T01:14:03;98875.03;;;10.66;94.74
17615;BME280;8926;49.720;6.576;2022-12-29T01:16:29;98869.22;;;10.63;95.23
17615;BME280;8926;49.720;6.576;2022-12-29T01:18:55;98854.41;;;10.63;95.26
17615;BME280;8926;49.720;6.576;2022-12-29T01:21:27;98867.66;;;10.60;95.67
17615;BME280;8926;49.720;6.576;2022-12-29T01:23:53;98863.38;;;10.59;95.91
17615;BME280;8926;49.720;6.576;2022-12-29T01:26:18;98871.31;;;10.58;96.10
17615;BME280;8926;49.720;6.576;2022-12-29T01:28:44;98858.06;;;10.61;95.55
17615;BME280;8926;49.720;6.576;2022-12-29T01:31:10;98867.16;;;10.55;96.55
17615;BME280;8926;49.720;6.576;2022-12-29T01:33:37;98870.72;;;10.54;96.55
17615;BME280;8926;49.720;6.576;2022-12-29T01:36:03;98868.81;;;10.56;96.56
17615;BME280;8926;49.720;6.576;2022-12-29T01:38:30;98869.97;;;10.52;97.07
17615;BME280;8926;49.720;6.576;2022-12-29T01:40:55;98862.16;;;10.52;97.04
17615;BME280;8926;49.720;6.576;2022-12-29T01:43:20;98853.59;;;10.50;97.38
17615;BME280;8926;49.720;6.576;2022-12-29T01:45:52;98858.81;;;10.50;97.25
17615;BME280;8926;49.720;6.576;2022-12-29T01:48:18;98863.09;;;10.51;97.24
17615;BME280;8926;49.720;6.576;2022-12-29T01:50:52;98868.41;;;10.49;97.34
17615;BME280;8926;49.720;6.576;2022-12-29T01:53:22;98854.00;;;10.44;97.94
17615;BME280;8926;49.720;6.576;2022-12-29T01:55:52;98852.34;;;10.43;98.22
17615;BME280;8926;49.720;6.576;2022-12-29T01:58:21;98856.72;;;10.42;98.42
17615;BME280;8926;49.720;6.576;2022-12-29T02:00:48;98855.16;;;10.40;98.87
17615;BME280;8926;49.720;6.576;2022-12-29T02:03:13;98847.31;;;10.40;98.95
17615;BME280;8926;49.720;6.576;2022-12-29T02:05:57;98840.31;;;10.40;98.39
17615;BME280;8926;49.720;6.576;2022-12-29T02:08:26;98843.19;;;10.37;98.92
17615;BME280;8926;49.720;6.576;2022-12-29T02:10:53;98837.97;;;10.37;98.54
17615;BME280;8926;49.720;6.576;2022-12-29T02:13:19;98836.28;;;10.36;98.72
17615;BME280;8926;49.720;6.576;2022-12-29T02:32:35;98826.84;;;10.46;95.84
17615;BME280;8926;49.720;6.576;2022-12-29T02:35:10;98827.47;;;10.50;94.91
17615;BME280;8926;49.720;6.576;2022-12-29T02:40:26;98807.81;;;10.57;94.20
17615;BME280;8926;49.720;6.576;2022-12-29T02:46:03;98808.75;;;10.56;93.87
17615;BME280;8926;49.720;6.576;2022-12-29T02:48:42;98794.66;;;10.59;94.00
17615;BME280;8926;49.720;6.576;2022-12-29T02:51:18;98795.50;;;10.59;93.28
17615;BME280;8926;49.720;6.576;2022-12-29T02:53:44;98802.16;;;10.63;93.32
17615;BME280;8926;49.720;6.576;2022-12-29T02:56:28;98807.38;;;10.63;93.37
17615;BME280;8926;49.720;6.576;2022-12-29T02:58:53;98784.59;;;10.65;93.11
17615;BME280;8926;49.720;6.576;2022-12-29T03:01:42;98790.63;;;10.66;92.75
17615;BME280;8926;49.720;6.576;2022-12-29T03:04:54;98779.13;;;10.68;92.21
17615;BME280;8926;49.720;6.576;2022-12-29T03:10:24;98779.84;;;10.70;92.16
17615;BME280;8926;49.720;6.576;2022-12-29T03:12:59;98769.41;;;10.70;91.83
17615;BME280;8926;49.720;6.576;2022-12-29T03:15:53;98781.19;;;10.76;91.26
17615;BME280;8926;49.720;6.576;2022-12-29T03:21:43;98774.19;;;10.76;90.93
17615;BME280;8926;49.720;6.576;2022-12-29T03:24:34;98771.34;;;10.79;90.45
17615;BME280;8926;49.720;6.576;2022-12-29T03:27:02;98767.81;;;10.80;90.17
17615;BME280;8926;49.720;6.576;2022-12-29T03:29:33;98767.56;;;10.83;89.18
17615;BME280;8926;49.720;6.576;2022-12-29T03:32:01;98765.69;;;10.85;89.50
17615;BME280;8926;49.720;6.576;2022-12-29T03:34:29;98770.69;;;10.88;88.94
17615;BME280;8926;49.720;6.576;2022-12-29T03:37:06;98765.22;;;10.92;88.48
17615;BME280;8926;49.720;6.576;2022-12-29T03:39:34;98761.66;;;10.93;88.60
17615;BME280;8926;49.720;6.576;2022-12-29T03:42:03;98754.53;;;10.95;88.04
17615;BME280;8926;49.720;6.576;2022-12-29T03:44:48;98745.53;;;10.99;87.10
17615;BME280;8926;49.720;6.576;2022-12-29T03:47:14;98745.31;;;11.02;86.74
17615;BME280;8926;49.720;6.576;2022-12-29T03:49:40;98741.53;;;11.06;86.01
17615;BME280;8926;49.720;6.576;2022-12-29T03:52:06;98744.63;;;11.11;85.74
17615;BME280;8926;49.720;6.576;2022-12-29T03:54:32;98753.41;;;11.10;85.96
17615;BME280;8926;49.720;6.576;2022-12-29T03:56:57;98759.38;;;11.12;85.32
17615;BME280;8926;49.720;6.576;2022-12-29T03:59:22;98753.19;;;11.13;85.53
17615;BME280;8926;49.720;6.576;2022-12-29T04:01:48;98757.47;;;11.14;85.37
17615;BME280;8926;49.720;6.576;2022-12-29T04:04:13;98753.19;;;11.13;86.08
17615;BME280;8926;49.720;6.576;2022-12-29T04:06:39;98761.97;;;11.12;86.02
17615;BME280;8926;49.720;6.576;2022-12-29T04:09:04;98765.66;;;11.09;86.54
17615;BME280;8926;49.720;6.576;2022-12-29T04:11:30;98761.25;;;11.10;86.57
17615;BME280;8926;49.720;6.576;2022-12-29T04:13:55;98769.09;;;11.10;87.07
17615;BME280;8926;49.720;6.576;2022-12-29T04:16:20;98760.88;;;11.03;87.48
17615;BME280;8926;49.720;6.576;2022-12-29T04:18:45;98759.09;;;11.04;87.49
17615;BME280;8926;49.720;6.576;2022-12-29T04:21:11;98757.66;;;11.00;87.63
17615;BME280;8926;49.720;6.576;2022-12-29T04:23:38;98754.81;;;11.03;87.34
17615;BME280;8926;49.720;6.576;2022-12-29T04:26:05;98755.75;;;11.02;87.51
17615;BME280;8926;49.720;6.576;2022-12-29T04:28:34;98753.88;;;11.04;86.97
17615;BME280;8926;49.720;6.576;2022-12-29T04:31:00;98759.81;;;11.06;86.97
17615;BME280;8926;49.720;6.576;2022-12-29T04:33:25;98753.66;;;11.07;86.61
17615;BME280;8926;49.720;6.576;2022-12-29T04:35:50;98753.41;;;11.10;86.43
17615;BME280;8926;49.720;6.576;2022-12-29T04:38:17;98756.53;;;11.15;85.69
17615;BME280;8926;49.720;6.576;2022-12-29T04:40:43;98740.59;;;11.18;85.40
17615;BME280;8926;49.720;6.576;2022-12-29T04:43:08;98742.25;;;11.19;85.46
17615;BME280;8926;49.720;6.576;2022-12-29T04:45:34;98733.22;;;11.23;85.39
17615;BME280;8926;49.720;6.576;2022-12-29T04:47:59;98735.72;;;11.25;85.38
17615;BME280;8926;49.720;6.576;2022-12-29T04:50:25;98733.00;;;11.26;85.42
17615;BME280;8926;49.720;6.576;2022-12-29T04:52:50;98741.78;;;11.25;85.28
17615;BME280;8926;49.720;6.576;2022-12-29T04:55:15;98734.66;;;11.27;85.44
17615;BME280;8926;49.720;6.576;2022-12-29T04:57:41;98731.09;;;11.28;84.81
17615;BME280;8926;49.720;6.576;2022-12-29T05:00:07;98725.41;;;11.34;84.38
17615;BME280;8926;49.720;6.576;2022-12-29T05:02:34;98737.53;;;11.35;84.34
17615;BME280;8926;49.720;6.576;2022-12-29T05:04:59;98724.00;;;11.41;83.59
17615;BME280;8926;49.720;6.576;2022-12-29T05:07:24;98725.78;;;11.41;83.76
17615;BME280;8926;49.720;6.576;2022-12-29T05:09:50;98742.06;;;11.44;83.77
17615;BME280;8926;49.720;6.576;2022-12-29T05:12:15;98720.91;;;11.47;83.80
17615;BME280;8926;49.720;6.576;2022-12-29T05:14:40;98719.94;;;11.48;83.10
17615;BME280;8926;49.720;6.576;2022-12-29T05:17:06;98715.22;;;11.53;83.31
17615;BME280;8926;49.720;6.576;2022-12-29T05:19:31;98727.34;;;11.54;84.00
17615;BME280;8926;49.720;6.576;2022-12-29T05:21:56;98726.13;;;11.47;84.91
17615;BME280;8926;49.720;6.576;2022-12-29T05:24:22;98724.00;;;11.41;86.20
17615;BME280;8926;49.720;6.576;2022-12-29T05:26:47;98709.72;;;11.34;87.15
17615;BME280;8926;49.720;6.576;2022-12-29T05:29:12;98728.59;;;11.27;88.37
17615;BME280;8926;49.720;6.576;2022-12-29T05:31:37;98717.78;;;11.20;89.23
17615;BME280;8926;49.720;6.576;2022-12-29T05:34:03;98736.06;;;11.09;90.34
17615;BME280;8926;49.720;6.576;2022-12-29T05:36:28;98726.06;;;11.03;90.78
17615;BME280;8926;49.720;6.576;2022-12-29T05:38:53;98733.63;;;10.95;92.18
17615;BME280;8926;49.720;6.576;2022-12-29T05:41:19;98725.31;;;10.90;92.51
17615;BME280;8926;49.720;6.576;2022-12-29T05:43:44;98731.00;;;10.83;93.20
17615;BME280;8926;49.720;6.576;2022-12-29T05:46:09;98726.00;;;10.80;93.66
17615;BME280;8926;49.720;6.576;2022-12-29T05:48:35;98731.44;;;10.77;93.75
17615;BME280;8926;49.720;6.576;2022-12-29T05:51:00;98730.63;;;10.77;93.85
17615;BME280;8926;49.720;6.576;2022-12-29T05:53:25;98723.13;;;10.72;94.03
17615;BME280;8926;49.720;6.576;2022-12-29T05:55:51;98733.56;;;10.72;93.87
17615;BME280;8926;49.720;6.576;2022-12-29T05:58:17;98735.44;;;10.70;93.35
17615;BME280;8926;49.720;6.576;2022-12-29T06:00:43;98728.56;;;10.69;93.26
17615;BME280;8926;49.720;6.576;2022-12-29T06:03:08;98735.44;;;10.70;93.08
17615;BME280;8926;49.720;6.576;2022-12-29T06:05:33;98737.72;;;10.75;92.47
17615;BME280;8926;49.720;6.576;2022-12-29T06:07:59;98740.22;;;10.76;92.21
17615;BME280;8926;49.720;6.576;2022-12-29T06:10:24;98723.94;;;10.73;92.02
17615;BME280;8926;49.720;6.576;2022-12-29T06:12:49;98734.78;;;10.79;91.08
17615;BME280;8926;49.720;6.576;2022-12-29T06:15:15;98737.06;;;10.84;90.63
17615;BME280;8926;49.720;6.576;2022-12-29T06:17:40;98739.66;;;10.84;90.40
17615;BME280;8926;49.720;6.576;2022-12-29T06:20:07;98747.50;;;10.84;90.46
17615;BME280;8926;49.720;6.576;2022-12-29T06:22:32;98742.06;;;10.87;90.02
17615;BME280;8926;49.720;6.576;2022-12-29T06:24:58;98757.50;;;10.90;89.19
17615;BME280;8926;49.720;6.576;2022-12-29T06:27:23;98753.97;;;10.91;89.65
17615;BME280;8926;49.720;6.576;2022-12-29T06:29:48;98740.75;;;10.93;88.82
17615;BME280;8926;49.720;6.576;2022-12-29T06:32:15;98747.31;;;10.98;88.41
17615;BME280;8926;49.720;6.576;2022-12-29T06:34:40;98748.25;;;10.97;88.55
17615;BME280;8926;49.720;6.576;2022-12-29T06:37:06;98752.53;;;10.98;88.79
17615;BME280;8926;49.720;6.576;2022-12-29T06:39:31;98758.72;;;10.97;88.58
17615;BME280;8926;49.720;6.576;2022-12-29T06:41:56;98763.94;;;10.97;88.45
17615;BME280;8926;49.720;6.576;2022-12-29T06:44:22;98773.78;;;10.94;88.99
17615;BME280;8926;49.720;6.576;2022-12-29T06:46:48;98784.22;;;10.94;88.69
17615;BME280;8926;49.720;6.576;2022-12-29T06:49:13;98777.09;;;10.96;89.06
17615;BME280;8926;49.720;6.576;2022-12-29T06:51:39;98791.13;;;10.95;89.00
17615;BME280;8926;49.720;6.576;2022-12-29T06:54:05;98791.13;;;10.95;88.88
17615;BME280;8926;49.720;6.576;2022-12-29T06:56:30;98791.94;;;10.95;88.95
17615;BME280;8926;49.720;6.576;2022-12-29T06:58:55;98784.94;;;10.96;88.61
17615;BME280;8926;49.720;6.576;2022-12-29T07:01:21;98796.13;;;10.98;88.69
17615;BME280;8926;49.720;6.576;2022-12-29T07:03:46;98773.56;;;10.97;88.35
17615;BME280;8926;49.720;6.576;2022-12-29T07:06:12;98803.03;;;10.99;88.36
17615;BME280;8926;49.720;6.576;2022-12-29T07:08:37;98790.69;;;11.01;88.27
17615;BME280;8926;49.720;6.576;2022-12-29T07:11:04;98783.56;;;11.03;88.07
17615;BME280;8926;49.720;6.576;2022-12-29T07:13:29;98794.97;;;11.02;88.30
17615;BME280;8926;49.720;6.576;2022-12-29T07:15:54;98801.13;;;11.01;88.36
17615;BME280;8926;49.720;6.576;2022-12-29T07:18:20;98802.19;;;10.98;89.01
17615;BME280;8926;49.720;6.576;2022-12-29T07:20:45;98816.91;;;10.99;89.15
17615;BME280;8926;49.720;6.576;2022-12-29T07:23:10;98818.69;;;10.99;89.60
17615;BME280;8926;49.720;6.576;2022-12-29T07:25:36;98813.69;;;10.96;90.18
17615;BME280;8926;49.720;6.576;2022-12-29T07:28:02;98807.03;;;10.92;90.17
17615;BME280;8926;49.720;6.576;2022-12-29T07:30:27;98815.84;;;10.91;90.82
17615;BME280;8926;49.720;6.576;2022-12-29T07:32:53;98826.50;;;10.87;91.34
17615;BME280;8926;49.720;6.576;2022-12-29T07:35:18;98830.78;;;10.88;91.26
17615;BME280;8926;49.720;6.576;2022-12-29T07:37:46;98833.63;;;10.85;91.43
17615;BME280;8926;49.720;6.576;2022-12-29T07:40:12;98843.13;;;10.86;91.51
17615;BME280;8926;49.720;6.576;2022-12-29T07:42:38;98844.28;;;10.82;91.82
17615;BME280;8926;49.720;6.576;2022-12-29T07:45:03;98834.47;;;10.86;91.60
17615;BME280;8926;49.720;6.576;2022-12-29T07:47:29;98845.75;;;10.86;91.90
17615;BME280;8926;49.720;6.576;2022-12-29T07:49:54;98845.97;;;10.83;92.20
17615;BME280;8926;49.720;6.576;2022-12-29T07:52:19;98844.28;;;10.82;91.61
17615;BME280;8926;49.720;6.576;2022-12-29T07:54:44;98847.63;;;10.84;91.29
17615;BME280;8926;49.720;6.576;2022-12-29T07:57:11;98856.41;;;10.83;91.52
17615;BME280;8926;49.720;6.576;2022-12-29T07:59:36;98852.84;;;10.84;91.03
17615;BME280;8926;49.720;6.576;2022-12-29T08:02:02;98863.31;;;10.84;90.60
17615;BME280;8926;49.720;6.576;2022-12-29T08:04:27;98870.41;;;10.82;90.32
17615;BME280;8926;49.720;6.576;2022-12-29T08:06:52;98866.88;;;10.83;89.60
17615;BME280;8926;49.720;6.576;2022-12-29T08:09:18;98865.19;;;10.82;89.39
17615;BME280;8926;49.720;6.576;2022-12-29T08:11:43;98870.41;;;10.82;88.63
17615;BME280;8926;49.720;6.576;2022-12-29T08:14:09;98886.38;;;10.91;88.79
17615;BME280;8926;49.720;6.576;2022-12-29T08:16:35;98878.75;;;10.87;88.71
17615;BME280;8926;49.720;6.576;2022-12-29T08:19:00;98880.66;;;10.85;88.45
17615;BME280;8926;49.720;6.576;2022-12-29T08:21:27;98889.22;;;10.87;88.11
17615;BME280;8926;49.720;6.576;2022-12-29T08:23:52;98904.91;;;10.87;88.37
17615;BME280;8926;49.720;6.576;2022-12-29T08:26:18;98897.78;;;10.90;88.03
17615;BME280;8926;49.720;6.576;2022-12-29T08:28:43;98901.56;;;10.85;88.17
17615;BME280;8926;49.720;6.576;2022-12-29T08:31:08;98907.63;;;10.86;88.08
17615;BME280;8926;49.720;6.576;2022-12-29T08:33:34;98899.66;;;10.87;87.70
17615;BME280;8926;49.720;6.576;2022-12-29T08:36:03;98912.72;;;10.87;88.00
17615;BME280;8926;49.720;6.576;2022-12-29T08:38:29;98919.13;;;10.83;88.17
17615;BME280;8926;49.720;6.576;2022-12-29T08:40:55;98903.88;;;10.77;88.29
17615;BME280;8926;49.720;6.576;2022-12-29T08:43:20;98915.16;;;10.78;88.34
17615;BME280;8926;49.720;6.576;2022-12-29T08:45:46;98936.16;;;10.76;88.04
17615;BME280;8926;49.720;6.576;2022-12-29T08:48:11;98914.41;;;10.76;87.19
17615;BME280;8926;49.720;6.576;2022-12-29T08:50:36;98900.53;;;10.75;87.30
17615;BME280;8926;49.720;6.576;2022-12-29T08:53:02;98916.81;;;10.79;87.21
17615;BME280;8926;49.720;6.576;2022-12-29T08:55:27;98910.53;;;10.81;86.98
17615;BME280;8926;49.720;6.576;2022-12-29T08:57:52;98913.69;;;10.86;86.23
17615;BME280;8926;49.720;6.576;2022-12-29T09:00:18;98917.75;;;10.91;85.19
17615;BME280;8926;49.720;6.576;2022-12-29T09:02:43;98937.97;;;11.00;84.99
17615;BME280;8926;49.720;6.576;2022-12-29T09:05:09;98941.41;;;11.00;84.17
17615;BME280;8926;49.720;6.576;2022-12-29T09:07:35;98942.47;;;10.98;83.90
17615;BME280;8926;49.720;6.576;2022-12-29T09:10:00;98954.59;;;10.99;83.65
17615;BME280;8926;49.720;6.576;2022-12-29T09:12:25;98944.34;;;10.96;83.44
17615;BME280;8926;49.720;6.576;2022-12-29T09:14:51;98956.25;;;11.00;83.19
17615;BME280;8926;49.720;6.576;2022-12-29T09:17:16;98951.97;;;10.99;82.26
17615;BME280;8926;49.720;6.576;2022-12-29T09:20:00;98970.91;;;11.02;80.85
17615;BME280;8926;49.720;6.576;2022-12-29T09:22:25;98963.78;;;11.04;81.12
17615;BME280;8926;49.720;6.576;2022-12-29T09:24:51;98962.75;;;11.07;80.88
17615;BME280;8926;49.720;6.576;2022-12-29T09:27:16;98956.06;;;11.03;80.94
17615;BME280;8926;49.720;6.576;2022-12-29T09:29:41;98964.63;;;11.05;81.21
17615;BME280;8926;49.720;6.576;2022-12-29T09:32:07;98954.06;;;11.06;81.00
17615;BME280;8926;49.720;6.576;2022-12-29T09:34:32;98954.16;;;11.05;80.88
17615;BME280;8926;49.720;6.576;2022-12-29T09:36:57;98958.34;;;11.07;80.97
17615;BME280;8926;49.720;6.576;2022-12-29T09:39:24;98969.19;;;11.14;80.83
17615;BME280;8926;49.720;6.576;2022-12-29T09:41:56;98972.53;;;11.16;80.65
17615;BME280;8926;49.720;6.576;2022-12-29T09:44:49;98982.53;;;11.22;80.32
17615;BME280;8926;49.720;6.576;2022-12-29T09:47:13;98978.75;;;11.26;79.83
17615;BME280;8926;49.720;6.576;2022-12-29T09:52:19;98980.66;;;11.24;79.53
17615;BME280;8926;49.720;6.576;2022-12-29T09:54:53;98985.88;;;11.24;79.42
17615;BME280;8926;49.720;6.576;2022-12-29T09:57:24;98990.59;;;11.19;79.41
17615;BME280;8926;49.720;6.576;2022-12-29T09:59:57;98989.22;;;11.26;78.94
17615;BME280;8926;49.720;6.576;2022-12-29T10:02:38;98993.63;;;11.26;79.21
17615;BME280;8926;49.720;6.576;2022-12-29T10:05:13;98998.84;;;11.26;79.20
17615;BME280;8926;49.720;6.576;2022-12-29T10:10:55;99001.44;;;11.38;78.61
17615;BME280;8926;49.720;6.576;2022-12-29T10:13:40;99004.25;;;11.35;78.20
17615;BME280;8926;49.720;6.576;2022-12-29T10:16:13;99001.91;;;11.43;78.18
17615;BME280;8926;49.720;6.576;2022-12-29T10:21:37;99007.13;;;11.43;77.97
17615;BME280;8926;49.720;6.576;2022-12-29T10:24:10;99007.38;;;11.40;77.38
17615;BME280;8926;49.720;6.576;2022-12-29T10:26:39;99012.16;;;11.46;77.41
17615;BME280;8926;49.720;6.576;2022-12-29T10:29:12;99009.53;;;11.46;77.76
17615;BME280;8926;49.720;6.576;2022-12-29T10:31:44;99008.59;;;11.47;77.93
17615;BME280;8926;49.720;6.576;2022-12-29T10:34:19;99003.59;;;11.44;77.75
17615;BME280;8926;49.720;6.576;2022-12-29T10:36:53;99005.75;;;11.50;77.55
17615;BME280;8926;49.720;6.576;2022-12-29T10:42:13;99013.41;;;11.53;77.50
17615;BME280;8926;49.720;6.576;2022-12-29T10:44:40;99013.81;;;11.47;77.22
17615;BME280;8926;49.720;6.576;2022-12-29T10:47:12;99011.00;;;11.50;77.03
17615;BME280;8926;49.720;6.576;2022-12-29T10:49:41;99011.72;;;11.52;77.01
17615;BME280;8926;49.720;6.576;2022-12-29T10:52:08;98996.53;;;11.57;76.25
17615;BME280;8926;49.720;6.576;2022-12-29T10:57:44;98997.03;;;11.63;76.20
17615;BME280;8926;49.720;6.576;2022-12-29T11:00:19;99010.13;;;11.63;76.39
17615;BME280;8926;49.720;6.576;2022-12-29T11:03:01;99010.84;;;11.65;76.73
17615;BME280;8926;49.720;6.576;2022-12-29T11:05:36;98993.47;;;11.64;76.23
17615;BME280;8926;49.720;6.576;2022-12-29T11:08:10;98989.91;;;11.65;76.03
17615;BME280;8926;49.720;6.576;2022-12-29T11:10:38;98996.81;;;11.66;76.37
17615;BME280;8926;49.720;6.576;2022-12-29T11:13:17;98984.47;;;11.68;76.56
17615;BME280;8926;49.720;6.576;2022-12-29T11:15:49;98980.91;;;11.69;76.59
17615;BME280;8926;49.720;6.576;2022-12-29T11:20:42;98988.25;;;11.64;75.71
17615;BME280;8926;49.720;6.576;2022-12-29T11:26:25;98984.22;;;11.71;76.38
17615;BME280;8926;49.720;6.576;2022-12-29T11:31:44;98990.88;;;11.75;77.13
17615;BME280;8926;49.720;6.576;2022-12-29T11:36:51;98991.13;;;11.72;77.33
17615;BME280;8926;49.720;6.576;2022-12-29T11:39:26;98995.94;;;11.78;77.27
17615;BME280;8926;49.720;6.576;2022-12-29T11:41:53;99004.28;;;11.83;77.14
17615;BME280;8926;49.720;6.576;2022-12-29T11:44:19;98994.53;;;11.85;76.95
17615;BME280;8926;49.720;6.576;2022-12-29T11:46:48;98999.78;;;11.85;76.83
17615;BME280;8926;49.720;6.576;2022-12-29T11:49:22;98988.38;;;11.86;76.59
17615;BME280;8926;49.720;6.576;2022-12-29T11:51:51;98991.69;;;11.88;76.56
17615;BME280;8926;49.720;6.576;2022-12-29T11:54:26;98995.72;;;11.81;76.07
17615;BME280;8926;49.720;6.576;2022-12-29T11:56:53;98986.81;;;11.83;75.96
17615;BME280;8926;49.720;6.576;2022-12-29T12:02:08;98992.31;;;11.92;75.78
17615;BME280;8926;49.720;6.576;2022-12-29T12:04:37;98983.88;;;11.99;74.83
17615;BME280;8926;49.720;6.576;2022-12-29T12:07:17;98986.03;;;12.05;74.62
17615;BME280;8926;49.720;6.576;2022-12-29T12:09:52;98991.28;;;12.05;74.44
17615;BME280;8926;49.720;6.576;2022-12-29T12:12:46;98999.34;;;12.02;73.49
17615;BME280;8926;49.720;6.576;2022-12-29T12:15:23;99005.09;;;12.07;73.76
17615;BME280;8926;49.720;6.576;2022-12-29T12:17:54;98996.81;;;12.36;71.63
17615;BME280;8926;49.720;6.576;2022-12-29T12:20:56;98995.44;;;12.65;71.03
17615;BME280;8926;49.720;6.576;2022-12-29T12:23:32;98994.72;;;12.63;70.36
17615;BME280;8926;49.720;6.576;2022-12-29T12:26:34;98992.19;;;12.62;70.39
17615;BME280;8926;49.720;6.576;2022-12-29T12:29:15;98998.97;;;12.53;70.42
17615;BME280;8926;49.720;6.576;2022-12-29T12:31:50;98992.56;;;12.46;69.57
17615;BME280;8926;49.720;6.576;2022-12-29T12:34:39;98987.78;;;13.07;68.81
17615;BME280;8926;49.720;6.576;2022-12-29T12:43:45;98983.78;;;13.78;66.08
17615;BME280;8926;49.720;6.576;2022-12-29T12:49:07;98985.97;;;13.73;64.99
17615;BME280;8926;49.720;6.576;2022-12-29T12:59:48;99005.19;;;13.19;64.96
17615;BME280;8926;49.720;6.576;2022-12-29T13:04:52;99007.78;;;12.74;64.81
17615;BME280;8926;49.720;6.576;2022-12-29T13:07:49;98994.22;;;12.47;65.96
17615;BME280;8926;49.720;6.576;2022-12-29T13:13:42;98996.22;;;12.32;66.45
17615;BME280;8926;49.720;6.576;2022-12-29T13:16:27;99028.19;;;12.13;66.10
17615;BME280;8926;49.720;6.576;2022-12-29T13:30:21;99007.03;;;12.16;67.38
17615;BME280;8926;49.720;6.576;2022-12-29T13:34:05;99005.25;;;12.17;67.27
17615;BME280;8926;49.720;6.576;2022-12-29T13:41:41;99010.03;;;11.99;66.69
17615;BME280;8926;49.720;6.576;2022-12-29T13:44:14;99016.47;;;11.95;66.86
17615;BME280;8926;49.720;6.576;2022-12-29T13:46:43;99022.88;;;11.91;66.93
17615;BME280;8926;49.720;6.576;2022-12-29T13:51:38;99015.03;;;11.91;67.41
17615;BME280;8926;49.720;6.576;2022-12-29T13:54:44;99017.91;;;11.99;66.13
17615;BME280;8926;49.720;6.576;2022-12-29T13:57:39;99006.25;;;12.03;66.03
17615;BME280;8926;49.720;6.576;2022-12-29T14:00:18;99014.59;;;12.08;65.49
17615;BME280;8926;49.720;6.576;2022-12-29T14:07:49;99021.06;;;12.15;65.24
17615;BME280;8926;49.720;6.576;2022-12-29T14:13:14;99024.34;;;11.95;64.49
17615;BME280;8926;49.720;6.576;2022-12-29T14:15:43;99033.81;;;11.96;65.08
17615;BME280;8926;49.720;6.576;2022-12-29T14:18:18;99032.41;;;11.92;64.89
17615;BME280;8926;49.720;6.576;2022-12-29T14:21:18;99010.75;;;11.90;63.67
17615;BME280;8926;49.720;6.576;2022-12-29T14:23:48;99023.56;;;11.82;64.35
17615;BME280;8926;49.720;6.576;2022-12-29T14:28:44;99027.44;;;11.76;64.72
17615;BME280;8926;49.720;6.576;2022-12-29T14:33:39;99021.31;;;11.65;65.58
17615;BME280;8926;49.720;6.576;2022-12-29T14:36:35;99029.72;;;11.57;65.70
17615;BME280;8926;49.720;6.576;2022-12-29T14:39:01;99030.25;;;11.49;66.05
17615;BME280;8926;49.720;6.576;2022-12-29T14:41:40;99017.59;;;11.43;66.25
17615;BME280;8926;49.720;6.576;2022-12-29T14:44:18;99033.75;;;11.37;66.61
17615;BME280;8926;49.720;6.576;2022-12-29T14:49:33;99044.34;;;11.23;66.83
17615;BME280;8926;49.720;6.576;2022-12-29T14:52:07;99049.31;;;11.15;67.33
17615;BME280;8926;49.720;6.576;2022-12-29T14:54:40;99045.00;;;11.14;67.25
17615;BME280;8926;49.720;6.576;2022-12-29T14:57:14;99052.84;;;11.14;67.31
17615;BME280;8926;49.720;6.576;2022-12-29T14:59:40;99055.16;;;11.06;67.11
17615;BME280;8926;49.720;6.576;2022-12-29T15:02:16;99047.31;;;11.06;67.42
17615;BME280;8926;49.720;6.576;2022-12-29T15:04:42;99064.03;;;11.03;67.79
17615;BME280;8926;49.720;6.576;2022-12-29T15:07:09;99060.59;;;11.03;67.36
17615;BME280;8926;49.720;6.576;2022-12-29T15:09:39;99067.91;;;10.98;67.34
17615;BME280;8926;49.720;6.576;2022-12-29T15:14:54;99060.06;;;10.98;67.57
17615;BME280;8926;49.720;6.576;2022-12-29T15:19:48;99065.97;;;10.88;67.97
17615;BME280;8926;49.720;6.576;2022-12-29T15:22:14;99063.75;;;10.82;68.38
17615;BME280;8926;49.720;6.576;2022-12-29T15:24:43;99070.88;;;10.80;68.45
17615;BME280;8926;49.720;6.576;2022-12-29T15:27:16;99069.59;;;10.73;68.76